sensor_id;sensor_type;location;lat;lon;timestamp;P1;durP1;ratioP1;P2;durP2;ratioP2
84297;SDS011;74466;51.188;3.242;2024-02-26T00:02:02;6.22;;;2.55;;
84297;SDS011;74466;51.188;3.242;2024-02-26T00:04:28;8.77;;;2.75;;
84297;SDS011;74466;51.188;3.242;2024-02-26T00:06:54;6.50;;;2.72;;
84297;SDS011;74466;51.188;3.242;2024-02-26T00:09:20;8.02;;;2.92;;
84297;SDS011;74466;51.188;3.242;2024-02-26T00:11:46;8.32;;;3.10;;
84297;SDS011;74466;51.188;3.242;2024-02-26T00:14:12;6.88;;;2.70;;
84297;SDS011;74466;51.188;3.242;2024-02-26T00:16:42;7.95;;;3.10;;
84297;SDS011;74466;51.188;3.242;2024-02-26T00:19:10;7.18;;;2.65;;
84297;SDS011;74466;51.188;3.242;2024-02-26T00:21:39;7.03;;;2.90;;
84297;SDS011;74466;51.188;3.242;2024-02-26T00:24:07;8.02;;;3.22;;
84297;SDS011;74466;51.188;3.242;2024-02-26T00:26:33;7.75;;;3.45;;
84297;SDS011;74466;51.188;3.242;2024-02-26T00:28:59;7.35;;;3.20;;
84297;SDS011;74466;51.188;3.242;2024-02-26T00:31:24;7.68;;;3.08;;
84297;SDS011;74466;51.188;3.242;2024-02-26T00:33:50;7.53;;;3.33;;
84297;SDS011;74466;51.188;3.242;2024-02-26T00:36:16;9.27;;;3.70;;
84297;SDS011;74466;51.188;3.242;2024-02-26T00:38:43;8.95;;;3.33;;
84297;SDS011;74466;51.188;3.242;2024-02-26T00:41:09;7.65;;;3.40;;
84297;SDS011;74466;51.188;3.242;2024-02-26T00:43:35;8.35;;;3.33;;
84297;SDS011;74466;51.188;3.242;2024-02-26T00:46:03;8.27;;;3.75;;
84297;SDS011;74466;51.188;3.242;2024-02-26T00:48:29;10.30;;;3.83;;
84297;SDS011;74466;51.188;3.242;2024-02-26T00:50:55;10.60;;;3.97;;
84297;SDS011;74466;51.188;3.242;2024-02-26T00:53:21;8.45;;;3.67;;
84297;SDS011;74466;51.188;3.242;2024-02-26T00:55:46;8.73;;;3.90;;
84297;SDS011;74466;51.188;3.242;2024-02-26T00:58:12;10.73;;;3.83;;
84297;SDS011;74466;51.188;3.242;2024-02-26T01:00:38;7.70;;;3.78;;
84297;SDS011;74466;51.188;3.242;2024-02-26T01:03:04;8.93;;;3.72;;
84297;SDS011;74466;51.188;3.242;2024-02-26T01:05:30;10.15;;;4.15;;
84297;SDS011;74466;51.188;3.242;2024-02-26T01:07:55;9.68;;;4.15;;
84297;SDS011;74466;51.188;3.242;2024-02-26T01:10:21;9.68;;;4.05;;
84297;SDS011;74466;51.188;3.242;2024-02-26T01:12:46;10.85;;;3.95;;
84297;SDS011;74466;51.188;3.242;2024-02-26T01:15:12;9.48;;;4.15;;
84297;SDS011;74466;51.188;3.242;2024-02-26T01:17:38;8.27;;;4.00;;
84297;SDS011;74466;51.188;3.242;2024-02-26T01:20:04;8.60;;;4.25;;
84297;SDS011;74466;51.188;3.242;2024-02-26T01:22:30;9.50;;;3.88;;
84297;SDS011;74466;51.188;3.242;2024-02-26T01:24:56;11.38;;;4.47;;
84297;SDS011;74466;51.188;3.242;2024-02-26T01:27:23;11.02;;;4.60;;
84297;SDS011;74466;51.188;3.242;2024-02-26T01:29:51;8.45;;;4.35;;
84297;SDS011;74466;51.188;3.242;2024-02-26T01:32:17;9.18;;;4.30;;
84297;SDS011;74466;51.188;3.242;2024-02-26T01:34:43;8.45;;;4.03;;
84297;SDS011;74466;51.188;3.242;2024-02-26T01:37:09;12.02;;;4.38;;
84297;SDS011;74466;51.188;3.242;2024-02-26T01:39:35;8.50;;;4.28;;
84297;SDS011;74466;51.188;3.242;2024-02-26T01:42:01;9.77;;;4.20;;
84297;SDS011;74466;51.188;3.242;2024-02-26T01:44:27;8.70;;;4.28;;
84297;SDS011;74466;51.188;3.242;2024-02-26T01:46:53;9.05;;;4.15;;
84297;SDS011;74466;51.188;3.242;2024-02-26T01:49:19;8.95;;;3.97;;
84297;SDS011;74466;51.188;3.242;2024-02-26T01:51:45;9.60;;;4.57;;
84297;SDS011;74466;51.188;3.242;2024-02-26T01:54:11;11.15;;;4.40;;
84297;SDS011;74466;51.188;3.242;2024-02-26T01:56:37;12.88;;;4.47;;
84297;SDS011;74466;51.188;3.242;2024-02-26T01:59:05;9.93;;;4.47;;
84297;SDS011;74466;51.188;3.242;2024-02-26T02:01:33;10.20;;;4.78;;
84297;SDS011;74466;51.188;3.242;2024-02-26T02:04:00;10.00;;;4.78;;
84297;SDS011;74466;51.188;3.242;2024-02-26T02:06:27;9.07;;;4.25;;
84297;SDS011;74466;51.188;3.242;2024-02-26T02:08:54;8.95;;;4.55;;
84297;SDS011;74466;51.188;3.242;2024-02-26T02:11:20;10.38;;;4.80;;
84297;SDS011;74466;51.188;3.242;2024-02-26T02:13:46;10.35;;;4.93;;
84297;SDS011;74466;51.188;3.242;2024-02-26T02:16:12;9.68;;;5.03;;
84297;SDS011;74466;51.188;3.242;2024-02-26T02:18:39;10.98;;;5.20;;
84297;SDS011;74466;51.188;3.242;2024-02-26T02:21:05;11.63;;;5.38;;
84297;SDS011;74466;51.188;3.242;2024-02-26T02:23:31;11.82;;;5.43;;
84297;SDS011;74466;51.188;3.242;2024-02-26T02:25:57;10.80;;;4.97;;
84297;SDS011;74466;51.188;3.242;2024-02-26T02:28:23;10.18;;;5.38;;
84297;SDS011;74466;51.188;3.242;2024-02-26T02:30:50;10.02;;;5.25;;
84297;SDS011;74466;51.188;3.242;2024-02-26T02:33:16;11.38;;;5.22;;
84297;SDS011;74466;51.188;3.242;2024-02-26T02:35:42;11.98;;;5.45;;
84297;SDS011;74466;51.188;3.242;2024-02-26T02:38:08;11.20;;;4.93;;
84297;SDS011;74466;51.188;3.242;2024-02-26T02:40:33;15.38;;;5.57;;
84297;SDS011;74466;51.188;3.242;2024-02-26T02:42:59;10.75;;;5.18;;
84297;SDS011;74466;51.188;3.242;2024-02-26T02:45:27;10.18;;;4.88;;
84297;SDS011;74466;51.188;3.242;2024-02-26T02:47:53;11.82;;;5.25;;
84297;SDS011;74466;51.188;3.242;2024-02-26T02:50:19;11.02;;;5.30;;
84297;SDS011;74466;51.188;3.242;2024-02-26T02:52:45;11.60;;;5.65;;
84297;SDS011;74466;51.188;3.242;2024-02-26T02:55:11;14.95;;;5.55;;
84297;SDS011;74466;51.188;3.242;2024-02-26T02:57:38;10.30;;;5.50;;
84297;SDS011;74466;51.188;3.242;2024-02-26T03:00:07;10.27;;;5.30;;
84297;SDS011;74466;51.188;3.242;2024-02-26T03:02:33;11.10;;;5.53;;
84297;SDS011;74466;51.188;3.242;2024-02-26T03:05:01;14.93;;;6.00;;
84297;SDS011;74466;51.188;3.242;2024-02-26T03:07:27;11.73;;;5.72;;
84297;SDS011;74466;51.188;3.242;2024-02-26T03:09:53;13.27;;;6.07;;
84297;SDS011;74466;51.188;3.242;2024-02-26T03:12:19;13.32;;;6.45;;
84297;SDS011;74466;51.188;3.242;2024-02-26T03:14:44;12.82;;;6.45;;
84297;SDS011;74466;51.188;3.242;2024-02-26T03:17:10;16.52;;;7.10;;
84297;SDS011;74466;51.188;3.242;2024-02-26T03:19:36;14.38;;;7.72;;
84297;SDS011;74466;51.188;3.242;2024-02-26T03:22:02;20.42;;;8.35;;
84297;SDS011;74466;51.188;3.242;2024-02-26T03:24:28;20.15;;;8.60;;
84297;SDS011;74466;51.188;3.242;2024-02-26T03:26:54;18.40;;;8.48;;
84297;SDS011;74466;51.188;3.242;2024-02-26T03:29:19;17.75;;;8.75;;
84297;SDS011;74466;51.188;3.242;2024-02-26T03:31:46;16.92;;;8.85;;
84297;SDS011;74466;51.188;3.242;2024-02-26T03:34:11;17.13;;;9.10;;
84297;SDS011;74466;51.188;3.242;2024-02-26T03:36:38;17.20;;;8.75;;
84297;SDS011;74466;51.188;3.242;2024-02-26T03:39:05;17.42;;;8.52;;
84297;SDS011;74466;51.188;3.242;2024-02-26T03:41:35;12.48;;;7.53;;
84297;SDS011;74466;51.188;3.242;2024-02-26T03:44:01;16.20;;;8.05;;
84297;SDS011;74466;51.188;3.242;2024-02-26T03:46:27;15.88;;;7.90;;
84297;SDS011;74466;51.188;3.242;2024-02-26T03:48:53;13.30;;;6.80;;
84297;SDS011;74466;51.188;3.242;2024-02-26T03:51:19;14.68;;;6.63;;
84297;SDS011;74466;51.188;3.242;2024-02-26T03:53:44;13.07;;;6.65;;
84297;SDS011;74466;51.188;3.242;2024-02-26T03:56:13;13.30;;;5.97;;
84297;SDS011;74466;51.188;3.242;2024-02-26T03:58:39;12.25;;;5.88;;
84297;SDS011;74466;51.188;3.242;2024-02-26T04:01:07;12.73;;;5.68;;
84297;SDS011;74466;51.188;3.242;2024-02-26T04:03:33;13.55;;;5.65;;
84297;SDS011;74466;51.188;3.242;2024-02-26T04:06:00;10.68;;;5.35;;
84297;SDS011;74466;51.188;3.242;2024-02-26T04:08:26;10.43;;;4.93;;
84297;SDS011;74466;51.188;3.242;2024-02-26T04:10:51;10.27;;;4.75;;
84297;SDS011;74466;51.188;3.242;2024-02-26T04:13:17;12.02;;;5.60;;
84297;SDS011;74466;51.188;3.242;2024-02-26T04:15:43;11.45;;;5.45;;
84297;SDS011;74466;51.188;3.242;2024-02-26T04:18:09;10.80;;;5.18;;
84297;SDS011;74466;51.188;3.242;2024-02-26T04:20:35;11.80;;;5.40;;
84297;SDS011;74466;51.188;3.242;2024-02-26T04:23:02;12.25;;;5.80;;
84297;SDS011;74466;51.188;3.242;2024-02-26T04:25:28;11.60;;;5.13;;
84297;SDS011;74466;51.188;3.242;2024-02-26T04:27:53;11.38;;;5.10;;
84297;SDS011;74466;51.188;3.242;2024-02-26T04:30:19;10.48;;;5.22;;
84297;SDS011;74466;51.188;3.242;2024-02-26T04:32:45;11.55;;;5.15;;
84297;SDS011;74466;51.188;3.242;2024-02-26T04:35:10;13.85;;;5.30;;
84297;SDS011;74466;51.188;3.242;2024-02-26T04:37:36;10.18;;;4.95;;
84297;SDS011;74466;51.188;3.242;2024-02-26T04:40:03;9.98;;;4.28;;
84297;SDS011;74466;51.188;3.242;2024-02-26T04:42:29;11.73;;;4.38;;
84297;SDS011;74466;51.188;3.242;2024-02-26T04:44:55;10.65;;;4.38;;
84297;SDS011;74466;51.188;3.242;2024-02-26T04:47:21;7.43;;;3.88;;
84297;SDS011;74466;51.188;3.242;2024-02-26T04:49:47;10.00;;;3.60;;
84297;SDS011;74466;51.188;3.242;2024-02-26T04:52:17;9.07;;;4.32;;
84297;SDS011;74466;51.188;3.242;2024-02-26T04:54:43;10.27;;;4.30;;
84297;SDS011;74466;51.188;3.242;2024-02-26T04:57:09;8.30;;;4.03;;
84297;SDS011;74466;51.188;3.242;2024-02-26T04:59:35;8.48;;;4.10;;
84297;SDS011;74466;51.188;3.242;2024-02-26T05:02:01;8.32;;;3.67;;
84297;SDS011;74466;51.188;3.242;2024-02-26T05:04:28;9.38;;;3.70;;
84297;SDS011;74466;51.188;3.242;2024-02-26T05:06:53;7.93;;;3.90;;
84297;SDS011;74466;51.188;3.242;2024-02-26T05:09:19;9.77;;;3.92;;
84297;SDS011;74466;51.188;3.242;2024-02-26T05:11:45;10.57;;;3.70;;
84297;SDS011;74466;51.188;3.242;2024-02-26T05:14:10;7.68;;;3.65;;
84297;SDS011;74466;51.188;3.242;2024-02-26T05:16:36;8.65;;;3.80;;
84297;SDS011;74466;51.188;3.242;2024-02-26T05:19:02;8.27;;;3.72;;
84297;SDS011;74466;51.188;3.242;2024-02-26T05:21:28;7.95;;;3.92;;
84297;SDS011;74466;51.188;3.242;2024-02-26T05:23:54;10.85;;;4.25;;
84297;SDS011;74466;51.188;3.242;2024-02-26T05:26:20;11.02;;;4.50;;
84297;SDS011;74466;51.188;3.242;2024-02-26T05:28:47;10.68;;;4.60;;
84297;SDS011;74466;51.188;3.242;2024-02-26T05:31:13;9.40;;;4.60;;
84297;SDS011;74466;51.188;3.242;2024-02-26T05:33:39;10.30;;;4.53;;
84297;SDS011;74466;51.188;3.242;2024-02-26T05:36:05;10.63;;;5.03;;
84297;SDS011;74466;51.188;3.242;2024-02-26T05:38:31;9.57;;;4.95;;
84297;SDS011;74466;51.188;3.242;2024-02-26T05:40:58;10.82;;;5.32;;
84297;SDS011;74466;51.188;3.242;2024-02-26T05:43:24;12.25;;;5.22;;
84297;SDS011;74466;51.188;3.242;2024-02-26T05:45:50;15.05;;;5.75;;
84297;SDS011;74466;51.188;3.242;2024-02-26T05:48:16;10.13;;;4.97;;
84297;SDS011;74466;51.188;3.242;2024-02-26T05:50:44;12.35;;;5.55;;
84297;SDS011;74466;51.188;3.242;2024-02-26T05:53:10;12.55;;;5.35;;
84297;SDS011;74466;51.188;3.242;2024-02-26T05:55:36;12.25;;;5.30;;
84297;SDS011;74466;51.188;3.242;2024-02-26T05:58:02;12.13;;;5.40;;
84297;SDS011;74466;51.188;3.242;2024-02-26T06:00:28;11.35;;;5.40;;
84297;SDS011;74466;51.188;3.242;2024-02-26T06:02:53;14.98;;;6.18;;
84297;SDS011;74466;51.188;3.242;2024-02-26T06:05:20;12.63;;;5.80;;
84297;SDS011;74466;51.188;3.242;2024-02-26T06:07:45;14.75;;;6.22;;
84297;SDS011;74466;51.188;3.242;2024-02-26T06:10:11;12.25;;;5.82;;
84297;SDS011;74466;51.188;3.242;2024-02-26T06:12:39;12.77;;;6.25;;
84297;SDS011;74466;51.188;3.242;2024-02-26T06:15:05;11.48;;;5.55;;
84297;SDS011;74466;51.188;3.242;2024-02-26T06:17:31;14.40;;;6.40;;
84297;SDS011;74466;51.188;3.242;2024-02-26T06:19:57;13.55;;;6.07;;
84297;SDS011;74466;51.188;3.242;2024-02-26T06:22:24;14.65;;;6.80;;
84297;SDS011;74466;51.188;3.242;2024-02-26T06:24:50;13.15;;;6.32;;
84297;SDS011;74466;51.188;3.242;2024-02-26T06:27:16;13.73;;;6.45;;
84297;SDS011;74466;51.188;3.242;2024-02-26T06:29:41;17.80;;;7.30;;
84297;SDS011;74466;51.188;3.242;2024-02-26T06:32:07;14.35;;;6.70;;
84297;SDS011;74466;51.188;3.242;2024-02-26T06:34:33;13.75;;;6.40;;
84297;SDS011;74466;51.188;3.242;2024-02-26T06:36:59;12.98;;;6.00;;
84297;SDS011;74466;51.188;3.242;2024-02-26T06:39:24;15.40;;;6.07;;
84297;SDS011;74466;51.188;3.242;2024-02-26T06:41:50;14.60;;;6.18;;
84297;SDS011;74466;51.188;3.242;2024-02-26T06:44:19;13.48;;;6.30;;
84297;SDS011;74466;51.188;3.242;2024-02-26T06:46:45;14.70;;;6.30;;
84297;SDS011;74466;51.188;3.242;2024-02-26T06:49:11;11.43;;;5.65;;
84297;SDS011;74466;51.188;3.242;2024-02-26T06:51:36;10.85;;;5.38;;
84297;SDS011;74466;51.188;3.242;2024-02-26T06:54:02;10.63;;;4.90;;
84297;SDS011;74466;51.188;3.242;2024-02-26T06:56:28;10.57;;;5.10;;
84297;SDS011;74466;51.188;3.242;2024-02-26T06:58:54;10.43;;;4.80;;
84297;SDS011;74466;51.188;3.242;2024-02-26T07:01:20;9.30;;;4.45;;
84297;SDS011;74466;51.188;3.242;2024-02-26T07:03:45;9.43;;;4.15;;
84297;SDS011;74466;51.188;3.242;2024-02-26T07:06:11;10.45;;;3.90;;
84297;SDS011;74466;51.188;3.242;2024-02-26T07:08:39;9.43;;;4.32;;
84297;SDS011;74466;51.188;3.242;2024-02-26T07:11:07;9.02;;;4.18;;
84297;SDS011;74466;51.188;3.242;2024-02-26T07:13:33;10.25;;;4.18;;
84297;SDS011;74466;51.188;3.242;2024-02-26T07:15:59;9.90;;;4.20;;
84297;SDS011;74466;51.188;3.242;2024-02-26T07:18:25;9.38;;;4.20;;
84297;SDS011;74466;51.188;3.242;2024-02-26T07:20:51;8.98;;;4.05;;
84297;SDS011;74466;51.188;3.242;2024-02-26T07:23:17;8.65;;;4.00;;
84297;SDS011;74466;51.188;3.242;2024-02-26T07:25:43;7.68;;;3.58;;
84297;SDS011;74466;51.188;3.242;2024-02-26T07:28:09;7.72;;;3.28;;
84297;SDS011;74466;51.188;3.242;2024-02-26T07:30:35;7.30;;;3.38;;
84297;SDS011;74466;51.188;3.242;2024-02-26T07:33:01;7.65;;;3.33;;
84297;SDS011;74466;51.188;3.242;2024-02-26T07:35:27;7.72;;;3.10;;
84297;SDS011;74466;51.188;3.242;2024-02-26T07:37:53;9.35;;;3.60;;
84297;SDS011;74466;51.188;3.242;2024-02-26T07:40:18;6.80;;;3.33;;
84297;SDS011;74466;51.188;3.242;2024-02-26T07:42:44;6.82;;;3.00;;
84297;SDS011;74466;51.188;3.242;2024-02-26T07:45:10;7.88;;;3.15;;
84297;SDS011;74466;51.188;3.242;2024-02-26T07:47:36;8.48;;;3.60;;
84297;SDS011;74466;51.188;3.242;2024-02-26T07:50:05;8.27;;;3.60;;
84297;SDS011;74466;51.188;3.242;2024-02-26T07:52:32;8.30;;;3.47;;
84297;SDS011;74466;51.188;3.242;2024-02-26T07:54:58;8.98;;;3.47;;
84297;SDS011;74466;51.188;3.242;2024-02-26T07:57:24;8.07;;;3.38;;
84297;SDS011;74466;51.188;3.242;2024-02-26T07:59:50;8.70;;;3.40;;
84297;SDS011;74466;51.188;3.242;2024-02-26T08:02:16;7.22;;;3.60;;
84297;SDS011;74466;51.188;3.242;2024-02-26T08:04:42;8.10;;;3.72;;
84297;SDS011;74466;51.188;3.242;2024-02-26T08:07:08;8.48;;;3.83;;
84297;SDS011;74466;51.188;3.242;2024-02-26T08:09:34;9.95;;;4.10;;
84297;SDS011;74466;51.188;3.242;2024-02-26T08:11:59;9.63;;;3.75;;
84297;SDS011;74466;51.188;3.242;2024-02-26T08:14:25;10.13;;;3.90;;
84297;SDS011;74466;51.188;3.242;2024-02-26T08:16:51;10.23;;;4.22;;
84297;SDS011;74466;51.188;3.242;2024-02-26T08:19:16;9.30;;;3.88;;
84297;SDS011;74466;51.188;3.242;2024-02-26T08:21:42;8.35;;;4.00;;
84297;SDS011;74466;51.188;3.242;2024-02-26T08:24:08;10.18;;;3.60;;
84297;SDS011;74466;51.188;3.242;2024-02-26T08:26:34;9.43;;;3.95;;
84297;SDS011;74466;51.188;3.242;2024-02-26T08:29:00;8.85;;;3.80;;
84297;SDS011;74466;51.188;3.242;2024-02-26T08:31:26;10.05;;;4.07;;
84297;SDS011;74466;51.188;3.242;2024-02-26T08:33:53;12.35;;;4.45;;
84297;SDS011;74466;51.188;3.242;2024-02-26T08:36:18;10.57;;;3.90;;
84297;SDS011;74466;51.188;3.242;2024-02-26T08:38:44;9.20;;;4.13;;
84297;SDS011;74466;51.188;3.242;2024-02-26T08:41:10;10.90;;;4.22;;
84297;SDS011;74466;51.188;3.242;2024-02-26T08:43:35;9.80;;;4.68;;
84297;SDS011;74466;51.188;3.242;2024-02-26T08:46:01;9.85;;;4.70;;
84297;SDS011;74466;51.188;3.242;2024-02-26T08:48:28;10.48;;;4.80;;
84297;SDS011;74466;51.188;3.242;2024-02-26T08:50:53;11.18;;;4.70;;
84297;SDS011;74466;51.188;3.242;2024-02-26T08:53:19;13.45;;;4.95;;
84297;SDS011;74466;51.188;3.242;2024-02-26T08:55:46;11.90;;;4.88;;
84297;SDS011;74466;51.188;3.242;2024-02-26T08:58:12;12.68;;;5.22;;
84297;SDS011;74466;51.188;3.242;2024-02-26T09:00:38;10.13;;;4.93;;
84297;SDS011;74466;51.188;3.242;2024-02-26T09:03:03;12.55;;;4.75;;
84297;SDS011;74466;51.188;3.242;2024-02-26T09:05:29;11.23;;;5.20;;
84297;SDS011;74466;51.188;3.242;2024-02-26T09:07:55;13.82;;;5.80;;
84297;SDS011;74466;51.188;3.242;2024-02-26T09:10:21;11.15;;;5.20;;
84297;SDS011;74466;51.188;3.242;2024-02-26T09:12:47;14.25;;;5.40;;
84297;SDS011;74466;51.188;3.242;2024-02-26T09:15:13;13.32;;;5.68;;
84297;SDS011;74466;51.188;3.242;2024-02-26T09:17:39;14.55;;;5.95;;
84297;SDS011;74466;51.188;3.242;2024-02-26T09:20:05;15.50;;;6.03;;
84297;SDS011;74466;51.188;3.242;2024-02-26T09:22:31;14.48;;;5.78;;
84297;SDS011;74466;51.188;3.242;2024-02-26T09:24:57;14.98;;;6.20;;
84297;SDS011;74466;51.188;3.242;2024-02-26T09:27:23;15.18;;;6.28;;
84297;SDS011;74466;51.188;3.242;2024-02-26T09:29:49;15.52;;;6.43;;
84297;SDS011;74466;51.188;3.242;2024-02-26T09:32:14;18.02;;;6.75;;
84297;SDS011;74466;51.188;3.242;2024-02-26T09:34:40;16.33;;;6.90;;
84297;SDS011;74466;51.188;3.242;2024-02-26T09:37:07;16.30;;;7.28;;
84297;SDS011;74466;51.188;3.242;2024-02-26T09:39:32;18.90;;;7.85;;
84297;SDS011;74466;51.188;3.242;2024-02-26T09:41:58;19.92;;;8.13;;
84297;SDS011;74466;51.188;3.242;2024-02-26T09:44:28;22.35;;;8.70;;
84297;SDS011;74466;51.188;3.242;2024-02-26T09:46:55;21.73;;;8.60;;
84297;SDS011;74466;51.188;3.242;2024-02-26T09:49:22;21.23;;;8.98;;
84297;SDS011;74466;51.188;3.242;2024-02-26T09:51:49;22.67;;;9.40;;
84297;SDS011;74466;51.188;3.242;2024-02-26T09:54:16;22.02;;;8.98;;
84297;SDS011;74466;51.188;3.242;2024-02-26T09:56:42;27.13;;;11.07;;
84297;SDS011;74466;51.188;3.242;2024-02-26T09:59:13;23.60;;;9.73;;
84297;SDS011;74466;51.188;3.242;2024-02-26T10:01:42;25.25;;;9.68;;
84297;SDS011;74466;51.188;3.242;2024-02-26T10:04:10;24.63;;;10.38;;
84297;SDS011;74466;51.188;3.242;2024-02-26T10:06:38;24.00;;;10.02;;
84297;SDS011;74466;51.188;3.242;2024-02-26T10:09:04;25.45;;;10.25;;
84297;SDS011;74466;51.188;3.242;2024-02-26T10:11:34;23.90;;;9.80;;
84297;SDS011;74466;51.188;3.242;2024-02-26T10:14:00;25.23;;;9.68;;
84297;SDS011;74466;51.188;3.242;2024-02-26T10:16:26;22.67;;;10.13;;
84297;SDS011;74466;51.188;3.242;2024-02-26T10:18:53;22.85;;;9.18;;
84297;SDS011;74466;51.188;3.242;2024-02-26T10:21:20;22.55;;;9.07;;
84297;SDS011;74466;51.188;3.242;2024-02-26T10:23:46;19.67;;;8.60;;
84297;SDS011;74466;51.188;3.242;2024-02-26T10:26:15;21.58;;;9.00;;
84297;SDS011;74466;51.188;3.242;2024-02-26T10:28:43;21.45;;;9.00;;
84297;SDS011;74466;51.188;3.242;2024-02-26T10:31:09;20.95;;;9.05;;
84297;SDS011;74466;51.188;3.242;2024-02-26T10:33:36;18.20;;;7.97;;
84297;SDS011;74466;51.188;3.242;2024-02-26T10:36:06;18.65;;;8.18;;
84297;SDS011;74466;51.188;3.242;2024-02-26T10:38:36;18.70;;;8.10;;
84297;SDS011;74466;51.188;3.242;2024-02-26T10:41:03;16.98;;;7.43;;
84297;SDS011;74466;51.188;3.242;2024-02-26T10:43:29;16.50;;;7.22;;
84297;SDS011;74466;51.188;3.242;2024-02-26T10:45:55;15.52;;;7.38;;
84297;SDS011;74466;51.188;3.242;2024-02-26T10:48:21;17.30;;;7.50;;
84297;SDS011;74466;51.188;3.242;2024-02-26T10:50:47;17.73;;;7.47;;
84297;SDS011;74466;51.188;3.242;2024-02-26T10:53:16;16.05;;;7.07;;
84297;SDS011;74466;51.188;3.242;2024-02-26T10:55:51;15.60;;;7.00;;
84297;SDS011;74466;51.188;3.242;2024-02-26T10:58:21;13.65;;;6.47;;
84297;SDS011;74466;51.188;3.242;2024-02-26T11:00:48;14.15;;;6.20;;
84297;SDS011;74466;51.188;3.242;2024-02-26T11:03:15;12.77;;;6.05;;
84297;SDS011;74466;51.188;3.242;2024-02-26T11:05:44;12.63;;;5.60;;
84297;SDS011;74466;51.188;3.242;2024-02-26T11:08:15;11.50;;;5.90;;
84297;SDS011;74466;51.188;3.242;2024-02-26T11:10:42;12.32;;;5.80;;
84297;SDS011;74466;51.188;3.242;2024-02-26T11:13:12;12.13;;;5.57;;
84297;SDS011;74466;51.188;3.242;2024-02-26T11:15:39;12.70;;;6.00;;
84297;SDS011;74466;51.188;3.242;2024-02-26T11:18:05;11.90;;;5.53;;
84297;SDS011;74466;51.188;3.242;2024-02-26T11:20:32;13.45;;;5.93;;
84297;SDS011;74466;51.188;3.242;2024-02-26T11:22:59;16.58;;;5.78;;
84297;SDS011;74466;51.188;3.242;2024-02-26T11:25:25;11.63;;;5.88;;
84297;SDS011;74466;51.188;3.242;2024-02-26T11:27:54;16.35;;;5.97;;
84297;SDS011;74466;51.188;3.242;2024-02-26T11:30:26;11.57;;;5.40;;
84297;SDS011;74466;51.188;3.242;2024-02-26T11:32:57;10.50;;;5.07;;
84297;SDS011;74466;51.188;3.242;2024-02-26T11:35:23;10.45;;;4.97;;
84297;SDS011;74466;51.188;3.242;2024-02-26T11:37:56;11.35;;;5.00;;
84297;SDS011;74466;51.188;3.242;2024-02-26T11:40:25;12.18;;;5.20;;
84297;SDS011;74466;51.188;3.242;2024-02-26T11:42:51;13.07;;;5.00;;
84297;SDS011;74466;51.188;3.242;2024-02-26T11:48:11;9.95;;;4.40;;
84297;SDS011;74466;51.188;3.242;2024-02-26T11:50:41;11.25;;;5.13;;
84297;SDS011;74466;51.188;3.242;2024-02-26T11:58:57;10.75;;;4.35;;
84297;SDS011;74466;51.188;3.242;2024-02-26T12:01:49;11.30;;;4.25;;
84297;SDS011;74466;51.188;3.242;2024-02-26T12:04:18;10.20;;;4.40;;
84297;SDS011;74466;51.188;3.242;2024-02-26T12:06:52;10.50;;;4.43;;
84297;SDS011;74466;51.188;3.242;2024-02-26T12:09:33;10.40;;;4.53;;
84297;SDS011;74466;51.188;3.242;2024-02-26T12:12:17;9.02;;;4.03;;
84297;SDS011;74466;51.188;3.242;2024-02-26T12:14:50;10.75;;;4.03;;
84297;SDS011;74466;51.188;3.242;2024-02-26T12:17:21;8.98;;;3.80;;
84297;SDS011;74466;51.188;3.242;2024-02-26T12:19:48;10.60;;;4.13;;
84297;SDS011;74466;51.188;3.242;2024-02-26T12:22:14;8.63;;;4.45;;
84297;SDS011;74466;51.188;3.242;2024-02-26T12:24:40;9.02;;;3.95;;
84297;SDS011;74466;51.188;3.242;2024-02-26T12:27:06;8.50;;;4.10;;
84297;SDS011;74466;51.188;3.242;2024-02-26T12:29:32;7.32;;;3.90;;
84297;SDS011;74466;51.188;3.242;2024-02-26T12:31:58;7.63;;;3.72;;
84297;SDS011;74466;51.188;3.242;2024-02-26T12:34:24;10.07;;;3.63;;
84297;SDS011;74466;51.188;3.242;2024-02-26T12:36:50;8.32;;;3.50;;
84297;SDS011;74466;51.188;3.242;2024-02-26T12:39:16;9.10;;;3.40;;
84297;SDS011;74466;51.188;3.242;2024-02-26T12:41:42;7.93;;;3.40;;
84297;SDS011;74466;51.188;3.242;2024-02-26T12:44:14;7.25;;;3.22;;
84297;SDS011;74466;51.188;3.242;2024-02-26T12:46:43;7.32;;;3.22;;
84297;SDS011;74466;51.188;3.242;2024-02-26T12:49:09;11.30;;;3.40;;
84297;SDS011;74466;51.188;3.242;2024-02-26T12:51:40;7.43;;;3.25;;
84297;SDS011;74466;51.188;3.242;2024-02-26T12:54:06;6.78;;;2.95;;
84297;SDS011;74466;51.188;3.242;2024-02-26T12:56:34;7.40;;;3.00;;
84297;SDS011;74466;51.188;3.242;2024-02-26T12:59:00;8.35;;;2.88;;
84297;SDS011;74466;51.188;3.242;2024-02-26T13:01:27;8.77;;;3.28;;
84297;SDS011;74466;51.188;3.242;2024-02-26T13:03:54;8.13;;;2.90;;
84297;SDS011;74466;51.188;3.242;2024-02-26T13:06:20;8.27;;;2.88;;
84297;SDS011;74466;51.188;3.242;2024-02-26T13:08:49;7.63;;;2.88;;
84297;SDS011;74466;51.188;3.242;2024-02-26T13:11:15;6.75;;;2.90;;
84297;SDS011;74466;51.188;3.242;2024-02-26T13:13:40;8.10;;;2.63;;
84297;SDS011;74466;51.188;3.242;2024-02-26T13:16:07;9.55;;;2.70;;
84297;SDS011;74466;51.188;3.242;2024-02-26T13:18:35;7.53;;;2.83;;
84297;SDS011;74466;51.188;3.242;2024-02-26T13:21:13;6.43;;;2.40;;
84297;SDS011;74466;51.188;3.242;2024-02-26T13:23:40;6.88;;;2.60;;
84297;SDS011;74466;51.188;3.242;2024-02-26T13:26:07;7.00;;;2.88;;
84297;SDS011;74466;51.188;3.242;2024-02-26T13:28:36;10.18;;;2.90;;
84297;SDS011;74466;51.188;3.242;2024-02-26T13:31:02;7.82;;;2.95;;
84297;SDS011;74466;51.188;3.242;2024-02-26T13:33:30;7.93;;;3.25;;
84297;SDS011;74466;51.188;3.242;2024-02-26T13:35:57;5.68;;;2.67;;
84297;SDS011;74466;51.188;3.242;2024-02-26T13:38:24;7.22;;;3.20;;
84297;SDS011;74466;51.188;3.242;2024-02-26T13:40:51;8.68;;;3.20;;
84297;SDS011;74466;51.188;3.242;2024-02-26T13:43:18;6.50;;;3.20;;
84297;SDS011;74466;51.188;3.242;2024-02-26T13:45:44;8.35;;;3.38;;
84297;SDS011;74466;51.188;3.242;2024-02-26T13:48:11;9.65;;;3.92;;
84297;SDS011;74466;51.188;3.242;2024-02-26T13:50:40;8.68;;;3.75;;
84297;SDS011;74466;51.188;3.242;2024-02-26T13:53:08;8.85;;;3.28;;
84297;SDS011;74466;51.188;3.242;2024-02-26T13:55:34;8.85;;;3.88;;
84297;SDS011;74466;51.188;3.242;2024-02-26T13:58:00;9.93;;;4.05;;
84297;SDS011;74466;51.188;3.242;2024-02-26T14:00:31;8.98;;;3.88;;
84297;SDS011;74466;51.188;3.242;2024-02-26T14:02:59;8.27;;;3.90;;
84297;SDS011;74466;51.188;3.242;2024-02-26T14:05:25;9.55;;;4.07;;
84297;SDS011;74466;51.188;3.242;2024-02-26T14:07:52;11.70;;;3.78;;
84297;SDS011;74466;51.188;3.242;2024-02-26T14:10:18;8.90;;;3.80;;
84297;SDS011;74466;51.188;3.242;2024-02-26T14:12:44;9.77;;;4.07;;
84297;SDS011;74466;51.188;3.242;2024-02-26T14:15:10;9.18;;;4.20;;
84297;SDS011;74466;51.188;3.242;2024-02-26T14:17:36;9.05;;;4.32;;
84297;SDS011;74466;51.188;3.242;2024-02-26T14:20:02;10.27;;;4.20;;
84297;SDS011;74466;51.188;3.242;2024-02-26T14:22:28;9.85;;;4.13;;
84297;SDS011;74466;51.188;3.242;2024-02-26T14:24:55;10.23;;;4.25;;
84297;SDS011;74466;51.188;3.242;2024-02-26T14:27:22;9.18;;;4.40;;
84297;SDS011;74466;51.188;3.242;2024-02-26T14:29:48;11.07;;;4.70;;
84297;SDS011;74466;51.188;3.242;2024-02-26T14:32:14;9.82;;;4.50;;
84297;SDS011;74466;51.188;3.242;2024-02-26T14:34:39;8.50;;;4.57;;
84297;SDS011;74466;51.188;3.242;2024-02-26T14:37:05;10.23;;;4.28;;
84297;SDS011;74466;51.188;3.242;2024-02-26T14:39:31;9.05;;;4.75;;
84297;SDS011;74466;51.188;3.242;2024-02-26T14:41:58;11.38;;;4.82;;
84297;SDS011;74466;51.188;3.242;2024-02-26T14:44:24;13.02;;;5.07;;
84297;SDS011;74466;51.188;3.242;2024-02-26T14:46:50;11.57;;;4.78;;